Time;durP1;ratioP1;P1;durP2;ratioP2;P2;SDS_P1;SDS_P2;PMS_P1;PMS_P2;Temp;Humidity;BMP_temperature;BMP_pressure;BME280_temperature;BME280_humidity;BME280_pressure;Samples;Min_cycle;Max_cycle;Signal;HPM_P1;HPM_P2
2021/05/14 00:01:07;;;;;;;8.65;7.85;;;;;;;;;;6272448;22;20342;-85
2021/05/14 00:03:33;;;;;;;8.82;7.93;;;;;;;;;;6273789;22;20362;-84
2021/05/14 00:05:59;;;;;;;8.90;8.13;;;;;;;;;;6246812;22;20423;-87
2021/05/14 00:08:25;;;;;;;7.43;6.80;;;;;;;;;;6247232;22;20346;-83
2021/05/14 00:10:51;;;;;;;7.88;7.18;;;;;;;;;;6246532;22;20354;-82
2021/05/14 00:13:18;;;;;;;7.68;7.05;;;;;;;;;;6247158;22;20456;-83
2021/05/14 00:15:44;;;;;;;6.32;5.82;;;;;;;;;;6274166;22;20338;-84
2021/05/14 00:18:10;;;;;;;6.85;6.25;;;;;;;;;;6274537;22;20422;-82
2021/05/14 00:20:37;;;;;;;6.85;6.35;;;;;;;;;;6246868;22;20361;-83
2021/05/14 00:23:04;;;;;;;6.65;6.05;;;;;;;;;;6247385;22;20404;-83
2021/05/14 00:25:30;;;;;;;6.55;5.95;;;;;;;;;;6247081;22;20432;-85
2021/05/14 00:27:56;;;;;;;6.60;6.00;;;;;;;;;;6274507;22;20346;-85
2021/05/14 00:30:23;;;;;;;7.40;6.70;;;;;;;;;;6245439;22;20342;-85
2021/05/14 00:32:49;;;;;;;7.88;7.28;;;;;;;;;;6246511;22;20359;-84
2021/05/14 00:35:15;;;;;;;7.45;6.75;;;;;;;;;;6272942;22;20673;-82
2021/05/14 00:37:41;;;;;;;8.02;7.43;;;;;;;;;;6272701;22;20343;-84
2021/05/14 00:40:07;;;;;;;8.50;7.80;;;;;;;;;;6247027;22;20444;-84
2021/05/14 00:42:33;;;;;;;8.13;7.53;;;;;;;;;;6273686;22;20335;-83
2021/05/14 00:44:59;;;;;;;8.55;7.75;;;;;;;;;;6246896;22;20343;-86
2021/05/14 00:47:25;;;;;;;9.20;8.40;;;;;;;;;;6246860;22;20434;-86
2021/05/14 00:49:52;;;;;;;9.00;8.30;;;;;;;;;;6246819;22;20404;-84
2021/05/14 00:52:18;;;;;;;9.57;8.65;;;;;;;;;;6273506;22;20678;-85
2021/05/14 00:54:46;;;;;;;8.20;7.50;;;;;;;;;;6274102;22;20334;-84
2021/05/14 00:57:15;;;;;;;7.80;7.13;;;;;;;;;;6247087;22;20711;-87
2021/05/14 00:59:41;;;;;;;7.88;7.18;;;;;;;;;;6273825;22;20342;-84
2021/05/14 01:02:07;;;;;;;7.97;7.28;;;;;;;;;;6273199;22;20331;-82
2021/05/14 01:04:33;;;;;;;7.25;6.65;;;;;;;;;;6246626;22;20395;-80
2021/05/14 01:06:59;;;;;;;8.10;7.40;;;;;;;;;;6273546;22;20392;-82
2021/05/14 01:09:25;;;;;;;8.32;7.50;;;;;;;;;;6246699;22;20342;-82
2021/05/14 01:11:51;;;;;;;8.68;7.32;;;;;;;;;;6246244;22;20369;-83
2021/05/14 01:14:17;;;;;;;7.95;7.25;;;;;;;;;;6273722;22;20884;-87
2021/05/14 01:16:43;;;;;;;7.95;7.28;;;;;;;;;;6273816;22;20426;-86
2021/05/14 01:19:10;;;;;;;8.57;7.75;;;;;;;;;;6253048;22;20339;-80
2021/05/14 01:21:36;;;;;;;8.00;7.20;;;;;;;;;;6286294;22;20343;-82
2021/05/14 01:24:02;;;;;;;8.70;7.53;;;;;;;;;;6259475;22;20338;-82
2021/05/14 01:26:28;;;;;;;8.20;7.40;;;;;;;;;;6286354;22;20346;-83
2021/05/14 01:28:54;;;;;;;7.93;7.13;;;;;;;;;;6276250;22;20658;-86
2021/05/14 01:31:21;;;;;;;7.30;6.70;;;;;;;;;;6272894;22;20698;-86
2021/05/14 01:33:47;;;;;;;7.45;6.75;;;;;;;;;;6273499;22;20339;-86
2021/05/14 01:36:13;;;;;;;7.55;6.85;;;;;;;;;;6246273;22;20339;-88
2021/05/14 01:38:39;;;;;;;7.45;6.78;;;;;;;;;;6273019;22;20343;-82
2021/05/14 01:41:05;;;;;;;7.93;7.20;;;;;;;;;;6245515;22;20347;-84
2021/05/14 01:43:31;;;;;;;7.75;7.05;;;;;;;;;;6246175;22;20817;-85
2021/05/14 01:45:57;;;;;;;8.57;7.75;;;;;;;;;;6273225;22;20422;-84
2021/05/14 01:48:23;;;;;;;7.10;6.50;;;;;;;;;;6246385;22;20376;-85
2021/05/14 01:50:49;;;;;;;7.72;7.00;;;;;;;;;;6245962;22;20821;-84
2021/05/14 01:53:15;;;;;;;7.75;6.95;;;;;;;;;;6273332;22;20342;-88
2021/05/14 01:55:42;;;;;;;8.40;7.60;;;;;;;;;;6246005;22;20707;-85
2021/05/14 01:58:08;;;;;;;7.95;7.15;;;;;;;;;;6246199;22;20343;-82
2021/05/14 02:00:34;;;;;;;7.55;6.80;;;;;;;;;;6246076;22;20365;-88
2021/05/14 02:03:01;;;;;;;7.57;6.85;;;;;;;;;;6246179;22;20377;-84
2021/05/14 02:05:27;;;;;;;7.33;6.73;;;;;;;;;;6273579;22;20339;-84
2021/05/14 02:07:55;;;;;;;8.93;7.60;;;;;;;;;;6273121;22;20815;-88
2021/05/14 02:10:21;;;;;;;8.50;7.70;;;;;;;;;;6245899;22;20342;-84
2021/05/14 02:12:47;;;;;;;8.88;8.02;;;;;;;;;;6273082;22;20402;-85
2021/05/14 02:15:13;;;;;;;8.35;7.55;;;;;;;;;;6246286;22;20800;-85
2021/05/14 02:17:39;;;;;;;9.00;8.10;;;;;;;;;;6273156;22;20339;-84
2021/05/14 02:20:06;;;;;;;8.90;8.05;;;;;;;;;;6273243;22;20342;-86
2021/05/14 02:22:33;;;;;;;9.23;8.32;;;;;;;;;;6246121;22;20342;-84
2021/05/14 02:24:59;;;;;;;9.73;8.73;;;;;;;;;;6273269;22;20342;-82
2021/05/14 02:27:25;;;;;;;9.68;8.70;;;;;;;;;;6246211;22;20357;-82
2021/05/14 02:29:51;;;;;;;9.40;8.50;;;;;;;;;;6246137;22;20342;-82
2021/05/14 02:32:17;;;;;;;9.50;8.48;;;;;;;;;;6272627;22;20740;-84
2021/05/14 02:34:44;;;;;;;9.63;8.63;;;;;;;;;;6273086;22;20340;-85
2021/05/14 02:37:10;;;;;;;12.20;8.90;;;;;;;;;;6273182;22;20346;-87
2021/05/14 02:39:36;;;;;;;8.73;7.80;;;;;;;;;;6245871;22;20354;-86
2021/05/14 02:42:03;;;;;;;9.17;8.27;;;;;;;;;;6272471;22;20330;-84
2021/05/14 02:44:29;;;;;;;9.25;8.35;;;;;;;;;;6273194;22;20825;-85
2021/05/14 02:46:55;;;;;;;10.97;9.00;;;;;;;;;;6272917;22;20330;-88
2021/05/14 02:49:21;;;;;;;10.13;8.10;;;;;;;;;;6273436;22;20346;-82
2021/05/14 02:51:47;;;;;;;8.48;7.63;;;;;;;;;;6274308;22;20369;-85
2021/05/14 02:54:13;;;;;;;8.15;7.25;;;;;;;;;;6274876;22;20785;-87
2021/05/14 02:56:39;;;;;;;9.13;7.60;;;;;;;;;;6247948;22;20350;-85
2021/05/14 02:59:05;;;;;;;8.23;7.38;;;;;;;;;;6275045;22;20790;-84
2021/05/14 03:01:31;;;;;;;7.50;6.80;;;;;;;;;;6274463;22;20338;-87
2021/05/14 03:03:57;;;;;;;7.70;6.95;;;;;;;;;;6274875;22;20331;-83
2021/05/14 03:06:23;;;;;;;6.97;6.28;;;;;;;;;;6247691;22;20350;-83
2021/05/14 03:08:49;;;;;;;6.50;5.90;;;;;;;;;;6247789;22;20343;-83
2021/05/14 03:11:15;;;;;;;7.10;6.38;;;;;;;;;;6247050;22;20427;-88
2021/05/14 03:13:41;;;;;;;6.93;6.22;;;;;;;;;;6247594;22;20446;-85
2021/05/14 03:16:07;;;;;;;6.60;6.00;;;;;;;;;;6247681;22;20808;-85
2021/05/14 03:18:33;;;;;;;8.60;6.60;;;;;;;;;;6275173;22;20334;-82
2021/05/14 03:20:59;;;;;;;6.90;6.30;;;;;;;;;;6274128;22;20330;-84
2021/05/14 03:23:25;;;;;;;6.55;5.95;;;;;;;;;;6247685;22;20346;-85
2021/05/14 03:25:51;;;;;;;7.30;6.60;;;;;;;;;;6247332;22;20792;-83
2021/05/14 03:28:17;;;;;;;6.78;6.07;;;;;;;;;;6274539;22;20385;-84
2021/05/14 03:30:44;;;;;;;6.35;5.75;;;;;;;;;;6273808;22;20741;-82
2021/05/14 03:33:10;;;;;;;6.97;5.87;;;;;;;;;;6274636;22;20338;-85
2021/05/14 03:35:37;;;;;;;6.90;6.28;;;;;;;;;;6274617;22;20381;-84
2021/05/14 03:38:03;;;;;;;7.03;6.15;;;;;;;;;;6274449;22;20396;-85
2021/05/14 03:42:55;;;;;;;7.20;6.50;;;;;;;;;;6274771;22;20427;-85
2021/05/14 03:45:21;;;;;;;7.40;6.55;;;;;;;;;;6274354;22;20331;-87
2021/05/14 03:47:47;;;;;;;6.53;5.93;;;;;;;;;;6274615;22;20362;-85
2021/05/14 03:50:13;;;;;;;7.65;6.85;;;;;;;;;;6274701;22;20353;-83
2021/05/14 03:52:40;;;;;;;6.80;5.90;;;;;;;;;;6246639;22;20382;-85
2021/05/14 03:55:06;;;;;;;8.38;6.03;;;;;;;;;;6274591;22;20341;-88
2021/05/14 03:57:32;;;;;;;6.97;6.25;;;;;;;;;;6274667;22;20425;-84
2021/05/14 03:59:58;;;;;;;7.35;6.72;;;;;;;;;;6274373;22;20743;-83
2021/05/14 04:02:24;;;;;;;8.30;7.20;;;;;;;;;;6246751;22;20350;-86
2021/05/14 04:04:50;;;;;;;8.13;7.25;;;;;;;;;;6247221;22;20346;-83
2021/05/14 04:07:16;;;;;;;10.40;8.37;;;;;;;;;;6247201;22;20717;-83
2021/05/14 04:09:50;;;;;;;9.50;8.47;;;;;;;;;;6274222;22;20338;-86
2021/05/14 04:14:45;;;;;;;10.93;9.32;;;;;;;;;;6274685;22;20808;-86
2021/05/14 04:17:11;;;;;;;10.40;9.27;;;;;;;;;;6274215;22;20493;-86
2021/05/14 04:19:37;;;;;;;12.00;10.47;;;;;;;;;;6246797;22;20865;-84
2021/05/14 04:22:05;;;;;;;11.75;10.25;;;;;;;;;;6246628;22;20343;-86
2021/05/14 04:24:31;;;;;;;11.45;9.95;;;;;;;;;;6274196;22;20866;-82
2021/05/14 04:26:58;;;;;;;11.45;9.32;;;;;;;;;;6274037;22;20342;-86
2021/05/14 04:29:24;;;;;;;12.43;10.48;;;;;;;;;;6273946;22;20677;-86
2021/05/14 04:31:50;;;;;;;10.32;9.27;;;;;;;;;;6273166;22;20374;-82
2021/05/14 04:34:17;;;;;;;10.70;9.60;;;;;;;;;;6273871;22;20346;-87
2021/05/14 04:36:43;;;;;;;11.15;9.70;;;;;;;;;;6273998;22;20437;-87
2021/05/14 04:39:10;;;;;;;12.88;11.43;;;;;;;;;;6273907;22;20392;-86
2021/05/14 04:41:36;;;;;;;12.80;11.48;;;;;;;;;;6246490;22;20400;-85
2021/05/14 04:44:03;;;;;;;13.43;12.02;;;;;;;;;;6274001;22;20377;-86
2021/05/14 04:46:29;;;;;;;13.48;12.07;;;;;;;;;;6246739;22;20346;-84
2021/05/14 04:48:55;;;;;;;12.55;11.23;;;;;;;;;;6246666;22;20367;-83
2021/05/14 04:51:21;;;;;;;11.27;10.18;;;;;;;;;;6273186;22;20900;-85
2021/05/14 04:53:48;;;;;;;10.77;9.68;;;;;;;;;;6246832;22;20365;-85
2021/05/14 04:56:15;;;;;;;11.20;10.10;;;;;;;;;;6246584;22;20776;-83
2021/05/14 04:58:44;;;;;;;10.77;9.68;;;;;;;;;;6273596;22;20371;-83
2021/05/14 05:01:13;;;;;;;12.32;9.77;;;;;;;;;;6272783;22;20392;-84
2021/05/14 05:03:39;;;;;;;10.52;9.52;;;;;;;;;;6246697;22;20396;-86
2021/05/14 05:06:05;;;;;;;10.20;9.17;;;;;;;;;;6246589;22;20342;-84
2021/05/14 05:08:31;;;;;;;10.43;8.90;;;;;;;;;;6246698;22;20405;-87
2021/05/14 05:10:57;;;;;;;10.98;9.85;;;;;;;;;;6245992;22;20446;-84
2021/05/14 05:13:23;;;;;;;12.85;10.20;;;;;;;;;;6246391;22;20729;-84
2021/05/14 05:15:49;;;;;;;11.02;9.98;;;;;;;;;;6246290;22;20670;-83
2021/05/14 05:18:15;;;;;;;11.38;10.18;;;;;;;;;;6273584;22;20334;-84
2021/05/14 05:20:42;;;;;;;11.10;9.90;;;;;;;;;;6273002;22;20872;-85
2021/05/14 05:23:07;;;;;;;11.10;10.00;;;;;;;;;;6246516;22;20342;-87
2021/05/14 05:25:33;;;;;;;11.40;10.23;;;;;;;;;;6273560;22;20417;-86
2021/05/14 05:27:59;;;;;;;11.27;10.13;;;;;;;;;;6246439;22;20343;-85
2021/05/14 05:30:25;;;;;;;10.90;9.80;;;;;;;;;;6272727;22;20338;-87
2021/05/14 05:32:52;;;;;;;11.75;10.50;;;;;;;;;;6246255;22;20435;-88
2021/05/14 05:35:18;;;;;;;10.82;9.82;;;;;;;;;;6246382;22;20342;-84
2021/05/14 05:37:44;;;;;;;10.93;9.93;;;;;;;;;;6273199;22;20361;-86
2021/05/14 05:40:10;;;;;;;11.45;10.35;;;;;;;;;;6246203;22;20982;-85
2021/05/14 05:42:36;;;;;;;11.45;10.25;;;;;;;;;;6245779;22;20343;-84
2021/05/14 05:45:03;;;;;;;11.55;10.35;;;;;;;;;;6246176;22;20642;-87
2021/05/14 05:47:34;;;;;;;12.05;10.80;;;;;;;;;;6273582;22;20334;-84
2021/05/14 05:50:00;;;;;;;13.63;12.02;;;;;;;;;;6246112;22;20355;-86
2021/05/14 05:52:26;;;;;;;15.33;13.77;;;;;;;;;;6272928;22;20366;-85
2021/05/14 05:54:52;;;;;;;19.03;14.93;;;;;;;;;;6246137;22;20429;-84
2021/05/14 05:57:18;;;;;;;15.88;14.18;;;;;;;;;;6246004;22;20738;-86
2021/05/14 05:59:44;;;;;;;14.85;13.35;;;;;;;;;;6273320;22;20339;-84
2021/05/14 06:02:10;;;;;;;15.88;14.18;;;;;;;;;;6272902;22;20645;-84
2021/05/14 06:04:36;;;;;;;15.15;13.55;;;;;;;;;;6273222;22;20334;-84
2021/05/14 06:07:02;;;;;;;14.30;12.80;;;;;;;;;;6245930;22;20368;-86
2021/05/14 06:09:28;;;;;;;13.15;11.93;;;;;;;;;;6246012;22;20339;-83
2021/05/14 06:11:54;;;;;;;14.38;12.85;;;;;;;;;;6246091;22;20737;-85
2021/05/14 06:14:20;;;;;;;13.80;12.13;;;;;;;;;;6246145;22;20353;-85
2021/05/14 06:16:46;;;;;;;13.13;11.82;;;;;;;;;;6273202;22;20334;-85
2021/05/14 06:19:16;;;;;;;12.90;11.63;;;;;;;;;;6245981;22;20934;-83
2021/05/14 06:21:47;;;;;;;12.18;11.05;;;;;;;;;;6272817;22;20421;-84
2021/05/14 06:24:14;;;;;;;12.35;11.05;;;;;;;;;;6246965;22;20866;-82
2021/05/14 06:26:40;;;;;;;12.20;11.00;;;;;;;;;;6275152;22;20846;-87
2021/05/14 06:29:06;;;;;;;12.75;11.02;;;;;;;;;;6248280;22;20390;-85
2021/05/14 06:31:32;;;;;;;11.73;10.52;;;;;;;;;;6274355;22;20370;-82
2021/05/14 06:33:58;;;;;;;11.63;10.52;;;;;;;;;;6247843;22;20425;-83
2021/05/14 06:36:24;;;;;;;11.52;9.85;;;;;;;;;;6248244;22;20428;-85
2021/05/14 06:38:50;;;;;;;11.07;9.13;;;;;;;;;;6275204;22;20417;-84
2021/05/14 06:41:16;;;;;;;10.38;9.38;;;;;;;;;;6274569;22;20363;-84
2021/05/14 06:43:42;;;;;;;8.32;7.53;;;;;;;;;;6247995;22;20878;-86
2021/05/14 06:46:08;;;;;;;7.80;7.10;;;;;;;;;;6247922;22;20362;-86
2021/05/14 06:48:34;;;;;;;7.30;6.63;;;;;;;;;;6275434;22;20410;-83
2021/05/14 06:51:01;;;;;;;6.35;5.75;;;;;;;;;;6247793;22;20429;-89
2021/05/14 06:53:27;;;;;;;6.80;5.45;;;;;;;;;;6275176;22;20358;-85
2021/05/14 06:55:54;;;;;;;6.60;5.20;;;;;;;;;;6274949;22;20370;-83
2021/05/14 06:58:20;;;;;;;34.80;29.90;;;;;;;;;;6274860;22;20385;-86
2021/05/14 07:00:46;;;;;;;6.25;5.65;;;;;;;;;;6274220;22;20394;-82
2021/05/14 07:03:12;;;;;;;5.83;5.33;;;;;;;;;;6247624;22;20349;-82
2021/05/14 07:05:38;;;;;;;7.75;7.05;;;;;;;;;;6275149;22;20486;-86
2021/05/14 07:08:04;;;;;;;5.85;5.25;;;;;;;;;;6274560;22;20375;-84
2021/05/14 07:10:31;;;;;;;12.95;11.80;;;;;;;;;;6246715;22;20393;-84
2021/05/14 07:12:57;;;;;;;8.07;7.28;;;;;;;;;;6274791;22;20374;-83
2021/05/14 07:15:23;;;;;;;7.28;6.57;;;;;;;;;;6274798;22;20335;-84
2021/05/14 07:17:49;;;;;;;12.85;11.73;;;;;;;;;;6274638;22;20339;-86
2021/05/14 07:20:16;;;;;;;4.57;4.10;;;;;;;;;;6274499;22;20349;-83
2021/05/14 07:22:42;;;;;;;6.40;4.50;;;;;;;;;;6247093;22;20376;-82
2021/05/14 07:25:08;;;;;;;14.50;13.20;;;;;;;;;;6274431;22;20361;-81
2021/05/14 07:27:34;;;;;;;5.40;4.00;;;;;;;;;;6268072;22;20339;-85
2021/05/14 07:30:01;;;;;;;7.22;6.63;;;;;;;;;;6273054;22;20326;-85
2021/05/14 07:32:27;;;;;;;4.75;4.35;;;;;;;;;;6273975;22;20378;-85
2021/05/14 07:34:54;;;;;;;3.92;3.40;;;;;;;;;;6273472;22;20335;-84
2021/05/14 07:37:21;;;;;;;3.53;3.03;;;;;;;;;;6273987;22;20350;-83
2021/05/14 07:39:49;;;;;;;3.60;3.30;;;;;;;;;;6247022;22;20417;-84
2021/05/14 07:42:15;;;;;;;3.60;3.30;;;;;;;;;;6274233;22;20395;-84
2021/05/14 07:44:43;;;;;;;3.30;3.05;;;;;;;;;;6274078;22;20350;-82
2021/05/14 07:47:09;;;;;;;3.50;3.20;;;;;;;;;;6247182;22;20483;-84
2021/05/14 07:49:35;;;;;;;3.10;2.90;;;;;;;;;;6274087;22;20377;-83
2021/05/14 07:52:01;;;;;;;4.35;2.95;;;;;;;;;;6273740;22;20862;-85
2021/05/14 07:54:27;;;;;;;3.00;2.80;;;;;;;;;;6273754;22;20708;-84
2021/05/14 07:56:53;;;;;;;2.70;2.50;;;;;;;;;;6273979;22;20342;-87
2021/05/14 07:59:19;;;;;;;31.30;27.92;;;;;;;;;;6274206;22;20394;-83
2021/05/14 08:01:45;;;;;;;5.15;4.75;;;;;;;;;;6274381;22;20335;-86
2021/05/14 08:04:11;;;;;;;3.47;3.15;;;;;;;;;;6253423;22;20338;-82
2021/05/14 08:06:37;;;;;;;3.23;2.93;;;;;;;;;;6279993;22;20427;-84
2021/05/14 08:09:07;;;;;;;4.17;3.83;;;;;;;;;;6284334;22;20335;-82
2021/05/14 08:11:33;;;;;;;3.50;3.20;;;;;;;;;;6280681;22;20393;-84
2021/05/14 08:13:59;;;;;;;14.63;12.18;;;;;;;;;;6246438;22;20347;-85
2021/05/14 08:16:25;;;;;;;17.95;16.35;;;;;;;;;;6269610;22;20681;-85
2021/05/14 08:18:51;;;;;;;5.63;5.13;;;;;;;;;;6246235;22;20353;-85
2021/05/14 08:21:17;;;;;;;5.60;4.95;;;;;;;;;;6245360;22;20365;-85
2021/05/14 08:23:43;;;;;;;5.97;4.85;;;;;;;;;;6245246;22;20334;-85
2021/05/14 08:26:10;;;;;;;5.00;4.05;;;;;;;;;;6273494;22;20880;-85
2021/05/14 08:28:36;;;;;;;3.90;3.50;;;;;;;;;;6246505;22;20464;-84
2021/05/14 08:31:03;;;;;;;4.63;4.23;;;;;;;;;;6273055;22;20374;-84
2021/05/14 08:33:28;;;;;;;4.22;3.83;;;;;;;;;;6273665;22;20335;-84
2021/05/14 08:35:55;;;;;;;4.18;3.75;;;;;;;;;;6272600;22;20342;-80
2021/05/14 08:38:21;;;;;;;4.10;3.70;;;;;;;;;;6246247;22;20678;-86
2021/05/14 08:40:47;;;;;;;4.28;3.88;;;;;;;;;;6272976;22;20338;-87
2021/05/14 08:43:13;;;;;;;4.28;3.80;;;;;;;;;;6272986;22;20338;-84
2021/05/14 08:45:39;;;;;;;5.25;4.75;;;;;;;;;;6273209;22;20828;-85
2021/05/14 08:48:11;;;;;;;6.38;5.13;;;;;;;;;;6245830;22;20442;-84
2021/05/14 08:50:37;;;;;;;8.05;6.28;;;;;;;;;;6245714;22;20347;-84
2021/05/14 08:53:03;;;;;;;11.02;7.70;;;;;;;;;;6273107;22;20418;-84
2021/05/14 08:55:30;;;;;;;8.30;6.22;;;;;;;;;;6242709;22;20361;-83
2021/05/14 08:57:56;;;;;;;16.55;13.73;;;;;;;;;;6272133;22;20350;-83
2021/05/14 09:00:23;;;;;;;11.30;10.13;;;;;;;;;;6271200;22;20322;-84
2021/05/14 09:02:51;;;;;;;6.57;5.80;;;;;;;;;;6272818;22;20503;-84
2021/05/14 09:05:32;;;;;;;11.73;7.18;;;;;;;;;;6273202;22;20334;-84
2021/05/14 09:07:58;;;;;;;5.38;4.25;;;;;;;;;;6245724;22;20421;-85
2021/05/14 09:10:26;;;;;;;4.40;3.30;;;;;;;;;;6272198;22;20790;-84
2021/05/14 09:12:52;;;;;;;5.97;2.80;;;;;;;;;;6272416;22;20362;-83
2021/05/14 09:15:35;;;;;;;4.97;2.40;;;;;;;;;;6272819;22;20426;-83
2021/05/14 09:18:02;;;;;;;6.18;3.20;;;;;;;;;;6244522;22;20342;-86
2021/05/14 09:20:35;;;;;;;4.68;2.90;;;;;;;;;;6271660;22;20433;-85
2021/05/14 09:23:21;;;;;;;5.28;2.90;;;;;;;;;;6272578;22;20902;-85
2021/05/14 09:25:50;;;;;;;6.15;2.75;;;;;;;;;;6272716;22;20885;-84
2021/05/14 09:28:36;;;;;;;9.70;8.80;;;;;;;;;;6245728;22;20342;-85
2021/05/14 09:31:06;;;;;;;5.05;2.60;;;;;;;;;;6244739;22;20359;-84
2021/05/14 09:33:34;;;;;;;4.55;2.60;;;;;;;;;;6271786;22;20692;-85
2021/05/14 09:36:05;;;;;;;4.97;2.40;;;;;;;;;;6272161;22;20335;-86
2021/05/14 09:38:42;;;;;;;4.70;2.33;;;;;;;;;;6244092;22;20409;-85
2021/05/14 09:41:22;;;;;;;4.20;2.40;;;;;;;;;;6245513;22;20433;-86
2021/05/14 09:44:14;;;;;;;6.28;2.70;;;;;;;;;;6272982;22;20373;-85
2021/05/14 09:46:40;;;;;;;5.28;3.10;;;;;;;;;;6242905;22;20346;-84
2021/05/14 09:49:06;;;;;;;5.28;2.90;;;;;;;;;;6245733;22;20958;-84
2021/05/14 09:51:33;;;;;;;4.28;2.90;;;;;;;;;;6272857;22;20358;-85
2021/05/14 09:54:17;;;;;;;7.03;3.15;;;;;;;;;;6272987;22;20335;-84
2021/05/14 09:56:44;;;;;;;7.57;3.38;;;;;;;;;;6272391;22;20330;-86
2021/05/14 09:59:10;;;;;;;4.57;3.00;;;;;;;;;;6272321;22;20334;-87
2021/05/14 10:01:36;;;;;;;4.65;3.30;;;;;;;;;;6272672;22;20335;-85
2021/05/14 10:04:02;;;;;;;6.20;3.53;;;;;;;;;;6272506;22;20835;-84
2021/05/14 10:06:30;;;;;;;5.88;3.33;;;;;;;;;;6272173;22;20666;-84
2021/05/14 10:09:05;;;;;;;5.53;3.50;;;;;;;;;;6244526;22;20716;-85
2021/05/14 10:11:31;;;;;;;4.55;3.03;;;;;;;;;;6244679;22;20362;-84
2021/05/14 10:13:57;;;;;;;7.32;3.53;;;;;;;;;;6270699;22;20391;-83
2021/05/14 10:16:23;;;;;;;5.07;3.40;;;;;;;;;;6271955;22;20335;-85
2021/05/14 10:18:50;;;;;;;6.68;3.47;;;;;;;;;;6244988;22;20357;-82
2021/05/14 10:21:17;;;;;;;5.63;3.88;;;;;;;;;;6271697;22;20414;-87
2021/05/14 10:23:44;;;;;;;5.57;3.53;;;;;;;;;;6245186;22;20813;-84
2021/05/14 10:26:11;;;;;;;5.93;3.65;;;;;;;;;;6272777;22;20335;-84
2021/05/14 10:28:42;;;;;;;7.93;3.90;;;;;;;;;;6272511;22;20362;-83
2021/05/14 10:31:09;;;;;;;6.20;3.73;;;;;;;;;;6272588;22;20362;-83
2021/05/14 10:33:43;;;;;;;6.30;3.88;;;;;;;;;;6272135;22;20797;-83
2021/05/14 10:36:12;;;;;;;6.13;4.13;;;;;;;;;;6271680;22;20662;-84
2021/05/14 10:38:38;;;;;;;5.75;4.00;;;;;;;;;;6244738;22;20351;-84
2021/05/14 10:41:24;;;;;;;6.20;4.07;;;;;;;;;;6243758;22;20342;-85
2021/05/14 10:43:59;;;;;;;6.15;3.92;;;;;;;;;;6244997;22;20756;-84
2021/05/14 10:46:29;;;;;;;6.40;3.90;;;;;;;;;;6271856;22;20339;-84
2021/05/14 10:49:02;;;;;;;7.85;4.50;;;;;;;;;;6271593;22;20412;-85
2021/05/14 10:51:56;;;;;;;5.72;3.97;;;;;;;;;;6272140;22;20366;-84
2021/05/14 10:54:41;;;;;;;6.57;4.38;;;;;;;;;;6270035;22;20354;-84
2021/05/14 10:57:08;;;;;;;7.80;4.68;;;;;;;;;;6267595;22;20334;-84
2021/05/14 10:59:41;;;;;;;6.10;4.55;;;;;;;;;;6243958;22;20737;-86
2021/05/14 11:02:26;;;;;;;7.00;4.10;;;;;;;;;;6271715;22;20330;-84
2021/05/14 11:04:52;;;;;;;6.13;4.30;;;;;;;;;;6271798;22;20380;-83
2021/05/14 11:07:30;;;;;;;7.18;4.53;;;;;;;;;;6272452;22;20327;-84
2021/05/14 11:10:15;;;;;;;7.82;4.97;;;;;;;;;;6272476;22;20331;-83
2021/05/14 11:12:46;;;;;;;6.88;4.55;;;;;;;;;;6274195;22;20363;-82
2021/05/14 11:15:21;;;;;;;6.28;4.45;;;;;;;;;;6273872;22;20331;-84
2021/05/14 11:18:11;;;;;;;7.97;4.68;;;;;;;;;;6274899;22;20785;-83
2021/05/14 11:20:44;;;;;;;8.43;5.47;;;;;;;;;;6238316;22;20405;-83
2021/05/14 11:23:29;;;;;;;6.60;5.40;;;;;;;;;;6246464;22;20382;-84
2021/05/14 11:25:55;;;;;;;8.13;4.72;;;;;;;;;;6246808;22;20441;-85
2021/05/14 11:28:36;;;;;;;7.43;5.45;;;;;;;;;;6274461;22;20335;-85
2021/05/14 11:31:02;;;;;;;7.45;5.00;;;;;;;;;;6246196;22;20394;-84
2021/05/14 11:33:29;;;;;;;4.90;4.40;;;;;;;;;;6246698;22;20350;-84
2021/05/14 11:35:55;;;;;;;5.32;4.82;;;;;;;;;;6247320;22;20726;-85
2021/05/14 11:38:21;;;;;;;6.35;4.70;;;;;;;;;;6273428;22;20331;-86
2021/05/14 11:40:49;;;;;;;6.18;4.93;;;;;;;;;;6246797;22;20350;-84
2021/05/14 11:43:15;;;;;;;6.40;4.35;;;;;;;;;;6247395;22;20393;-85
2021/05/14 11:45:45;;;;;;;7.93;4.80;;;;;;;;;;6273462;22;20360;-84
2021/05/14 11:48:13;;;;;;;7.75;4.93;;;;;;;;;;6273728;22;20334;-85
2021/05/14 11:50:43;;;;;;;6.40;5.20;;;;;;;;;;6273415;22;20342;-85
2021/05/14 11:53:12;;;;;;;7.00;4.93;;;;;;;;;;6273934;22;20646;-87
2021/05/14 11:55:40;;;;;;;7.07;5.05;;;;;;;;;;6273800;22;20350;-86
2021/05/14 11:58:06;;;;;;;6.40;5.43;;;;;;;;;;6246175;22;20347;-83
2021/05/14 12:00:39;;;;;;;6.45;5.28;;;;;;;;;;6272783;22;20661;-83
2021/05/14 12:03:06;;;;;;;5.13;4.10;;;;;;;;;;6245899;22;20434;-86
2021/05/14 12:05:32;;;;;;;5.57;3.97;;;;;;;;;;6246754;22;20401;-83
2021/05/14 12:08:12;;;;;;;3.90;3.50;;;;;;;;;;6246197;22;20346;-84
2021/05/14 12:10:56;;;;;;;6.03;3.60;;;;;;;;;;6272962;22;20330;-85
2021/05/14 12:13:22;;;;;;;4.53;2.65;;;;;;;;;;6274404;22;20356;-84
2021/05/14 12:16:09;;;;;;;3.45;2.95;;;;;;;;;;6272882;22;20362;-85
2021/05/14 12:18:36;;;;;;;4.97;3.00;;;;;;;;;;6274622;22;20362;-86
2021/05/14 12:21:03;;;;;;;4.00;2.80;;;;;;;;;;6273645;22;20377;-85
2021/05/14 12:23:30;;;;;;;4.07;2.90;;;;;;;;;;6247450;22;20429;-86
2021/05/14 12:26:03;;;;;;;4.40;2.83;;;;;;;;;;6247531;22;20347;-85
2021/05/14 12:28:42;;;;;;;4.45;3.10;;;;;;;;;;6274344;22;20397;-83
2021/05/14 12:31:16;;;;;;;4.80;2.63;;;;;;;;;;6245682;22;20683;-85
2021/05/14 12:34:01;;;;;;;3.60;2.47;;;;;;;;;;6246742;22;20375;-84
2021/05/14 12:36:31;;;;;;;3.63;2.63;;;;;;;;;;6246797;22;20338;-85
2021/05/14 12:39:05;;;;;;;3.40;2.22;;;;;;;;;;6273935;22;20387;-84
2021/05/14 12:41:32;;;;;;;2.75;2.00;;;;;;;;;;6273702;22;20366;-83
2021/05/14 12:44:17;;;;;;;3.42;2.22;;;;;;;;;;6274169;22;20654;-83
2021/05/14 12:46:59;;;;;;;4.20;2.20;;;;;;;;;;6246320;22;20402;-85
2021/05/14 12:49:25;;;;;;;2.60;1.90;;;;;;;;;;6245045;22;20346;-85
2021/05/14 12:52:01;;;;;;;2.80;1.80;;;;;;;;;;6271824;22;20397;-84
2021/05/14 12:54:28;;;;;;;3.15;1.77;;;;;;;;;;6244783;22;20358;-85
2021/05/14 12:56:54;;;;;;;1.92;1.50;;;;;;;;;;6245435;22;20816;-83
2021/05/14 12:59:24;;;;;;;4.05;1.70;;;;;;;;;;6245131;22;20351;-84
2021/05/14 13:01:51;;;;;;;2.30;1.60;;;;;;;;;;6244414;22;20351;-83
2021/05/14 13:04:17;;;;;;;4.55;1.70;;;;;;;;;;6244424;22;20374;-84
2021/05/14 13:06:43;;;;;;;3.70;1.50;;;;;;;;;;6272168;22;20433;-83
2021/05/14 13:09:10;;;;;;;5.80;1.90;;;;;;;;;;6273940;22;20334;-84
2021/05/14 13:11:39;;;;;;;2.80;1.40;;;;;;;;;;6273403;22;20449;-85
2021/05/14 13:14:06;;;;;;;3.67;1.60;;;;;;;;;;6273985;22;20430;-86
2021/05/14 13:16:32;;;;;;;3.05;1.60;;;;;;;;;;6246715;22;20343;-86
2021/05/14 13:18:58;;;;;;;2.88;1.33;;;;;;;;;;6242731;22;20354;-86
2021/05/14 13:21:25;;;;;;;3.03;1.60;;;;;;;;;;6271034;22;20330;-83
2021/05/14 13:23:51;;;;;;;4.03;1.48;;;;;;;;;;6274579;22;20634;-85
2021/05/14 13:26:18;;;;;;;4.15;2.03;;;;;;;;;;6275133;22;20338;-86
2021/05/14 13:28:45;;;;;;;4.32;1.75;;;;;;;;;;6246810;22;20365;-83
2021/05/14 13:31:12;;;;;;;4.75;1.80;;;;;;;;;;6246796;22;20688;-88
2021/05/14 13:33:39;;;;;;;3.60;1.70;;;;;;;;;;6246645;22;20442;-85
2021/05/14 13:36:05;;;;;;;6.03;1.80;;;;;;;;;;6273782;22;20330;-86
2021/05/14 13:38:31;;;;;;;5.88;2.00;;;;;;;;;;6246957;22;20776;-84
2021/05/14 13:40:57;;;;;;;2.53;1.75;;;;;;;;;;6245966;22;20343;-86
2021/05/14 13:43:24;;;;;;;3.30;1.88;;;;;;;;;;6272911;22;20896;-83
2021/05/14 13:45:51;;;;;;;3.67;1.80;;;;;;;;;;6246209;22;20658;-83
2021/05/14 13:48:17;;;;;;;4.20;2.07;;;;;;;;;;6246385;22;20817;-82
2021/05/14 13:50:44;;;;;;;2.33;1.67;;;;;;;;;;6240477;22;20347;-83
2021/05/14 13:53:11;;;;;;;4.13;2.00;;;;;;;;;;6244038;22;20378;-82
2021/05/14 13:55:38;;;;;;;2.60;1.67;;;;;;;;;;6244344;22;20350;-83
2021/05/14 13:58:04;;;;;;;4.63;1.73;;;;;;;;;;6271943;22;20686;-84
2021/05/14 14:00:30;;;;;;;2.20;1.60;;;;;;;;;;6242691;22;20335;-81
2021/05/14 14:02:56;;;;;;;3.97;1.63;;;;;;;;;;6247963;22;20457;-84
2021/05/14 14:05:22;;;;;;;4.17;2.13;;;;;;;;;;6253456;22;20885;-81
2021/05/14 14:07:49;;;;;;;3.85;1.70;;;;;;;;;;6250085;22;20501;-81
2021/05/14 14:10:15;;;;;;;3.00;1.70;;;;;;;;;;6251046;22;20418;-83
2021/05/14 14:12:42;;;;;;;3.23;2.03;;;;;;;;;;6247056;22;20370;-83
2021/05/14 14:15:12;;;;;;;2.95;2.10;;;;;;;;;;6274975;22;20361;-83
2021/05/14 14:17:38;;;;;;;3.60;2.10;;;;;;;;;;6277017;22;20339;-82
2021/05/14 14:20:05;;;;;;;2.97;1.80;;;;;;;;;;6275733;22;20327;-82
2021/05/14 14:22:31;;;;;;;3.33;1.97;;;;;;;;;;6244412;22;20793;-82
2021/05/14 14:24:57;;;;;;;2.77;2.17;;;;;;;;;;6247230;22;20406;-82
2021/05/14 14:27:32;;;;;;;3.17;2.08;;;;;;;;;;6270758;22;20857;-84
2021/05/14 14:30:02;;;;;;;4.80;2.47;;;;;;;;;;6238801;22;20389;-84
2021/05/14 14:32:30;;;;;;;4.18;2.20;;;;;;;;;;6238413;22;20948;-82
2021/05/14 14:34:56;;;;;;;2.97;2.15;;;;;;;;;;6267101;22;21148;-83
2021/05/14 14:37:22;;;;;;;2.92;2.10;;;;;;;;;;6241235;22;20817;-84
2021/05/14 14:39:48;;;;;;;3.65;2.20;;;;;;;;;;6240841;22;20357;-84
2021/05/14 14:42:14;;;;;;;3.88;2.10;;;;;;;;;;6269066;22;20741;-83
2021/05/14 14:44:42;;;;;;;2.67;1.90;;;;;;;;;;6269245;22;20347;-83
2021/05/14 14:47:08;;;;;;;2.90;2.10;;;;;;;;;;6243826;22;20396;-83